sensor_id;sensor_type;location;lat;lon;timestamp;P1;durP1;ratioP1;P2;durP2;ratioP2
42912;SDS011;50720;54.324;18.558;2022-10-16T00:00:17;64.85;;;34.10;;
42912;SDS011;50720;54.324;18.558;2022-10-16T00:03:09;55.92;;;31.38;;
42912;SDS011;50720;54.324;18.558;2022-10-16T00:05:39;56.97;;;31.60;;
42912;SDS011;50720;54.324;18.558;2022-10-16T00:08:10;57.67;;;30.35;;
42912;SDS011;50720;54.324;18.558;2022-10-16T00:10:41;58.33;;;31.67;;
42912;SDS011;50720;54.324;18.558;2022-10-16T00:13:10;56.80;;;31.85;;
42912;SDS011;50720;54.324;18.558;2022-10-16T00:15:40;61.10;;;31.97;;
42912;SDS011;50720;54.324;18.558;2022-10-16T00:18:13;51.72;;;29.08;;
42912;SDS011;50720;54.324;18.558;2022-10-16T00:20:43;55.85;;;31.58;;
42912;SDS011;50720;54.324;18.558;2022-10-16T00:23:12;56.65;;;33.42;;
42912;SDS011;50720;54.324;18.558;2022-10-16T00:25:42;58.88;;;31.45;;
42912;SDS011;50720;54.324;18.558;2022-10-16T00:28:12;51.60;;;29.42;;
42912;SDS011;50720;54.324;18.558;2022-10-16T00:30:42;60.27;;;32.87;;
42912;SDS011;50720;54.324;18.558;2022-10-16T00:33:13;60.80;;;31.73;;
42912;SDS011;50720;54.324;18.558;2022-10-16T00:35:42;56.42;;;30.88;;
42912;SDS011;50720;54.324;18.558;2022-10-16T00:38:11;57.80;;;31.02;;
42912;SDS011;50720;54.324;18.558;2022-10-16T00:40:42;52.33;;;30.70;;
42912;SDS011;50720;54.324;18.558;2022-10-16T00:43:31;53.38;;;29.90;;
42912;SDS011;50720;54.324;18.558;2022-10-16T00:46:03;53.67;;;29.98;;
42912;SDS011;50720;54.324;18.558;2022-10-16T00:48:39;54.67;;;30.10;;
42912;SDS011;50720;54.324;18.558;2022-10-16T00:51:09;63.70;;;30.73;;
42912;SDS011;50720;54.324;18.558;2022-10-16T00:53:39;50.58;;;29.30;;
42912;SDS011;50720;54.324;18.558;2022-10-16T00:56:09;50.17;;;27.48;;
42912;SDS011;50720;54.324;18.558;2022-10-16T00:58:38;52.45;;;30.38;;
42912;SDS011;50720;54.324;18.558;2022-10-16T01:01:08;51.70;;;28.67;;
42912;SDS011;50720;54.324;18.558;2022-10-16T01:03:39;48.45;;;27.75;;
42912;SDS011;50720;54.324;18.558;2022-10-16T01:06:12;48.45;;;28.35;;
42912;SDS011;50720;54.324;18.558;2022-10-16T01:08:58;45.75;;;28.90;;
42912;SDS011;50720;54.324;18.558;2022-10-16T01:11:38;50.53;;;28.23;;
42912;SDS011;50720;54.324;18.558;2022-10-16T01:14:20;43.72;;;24.75;;
42912;SDS011;50720;54.324;18.558;2022-10-16T01:16:56;44.80;;;25.30;;
42912;SDS011;50720;54.324;18.558;2022-10-16T01:19:44;48.22;;;26.52;;
42912;SDS011;50720;54.324;18.558;2022-10-16T01:22:33;46.47;;;26.35;;
42912;SDS011;50720;54.324;18.558;2022-10-16T01:25:11;44.17;;;27.85;;
42912;SDS011;50720;54.324;18.558;2022-10-16T01:27:49;46.72;;;27.05;;
42912;SDS011;50720;54.324;18.558;2022-10-16T01:30:21;45.88;;;25.60;;
42912;SDS011;50720;54.324;18.558;2022-10-16T01:32:55;47.83;;;26.25;;
42912;SDS011;50720;54.324;18.558;2022-10-16T01:35:29;42.25;;;25.55;;
42912;SDS011;50720;54.324;18.558;2022-10-16T01:38:01;39.40;;;25.55;;
42912;SDS011;50720;54.324;18.558;2022-10-16T01:40:36;35.85;;;22.85;;
42912;SDS011;50720;54.324;18.558;2022-10-16T01:43:11;40.35;;;24.45;;
42912;SDS011;50720;54.324;18.558;2022-10-16T01:45:43;44.30;;;25.63;;
42912;SDS011;50720;54.324;18.558;2022-10-16T01:48:16;45.47;;;25.38;;
42912;SDS011;50720;54.324;18.558;2022-10-16T01:50:49;39.97;;;23.02;;
42912;SDS011;50720;54.324;18.558;2022-10-16T01:53:24;37.15;;;23.92;;
42912;SDS011;50720;54.324;18.558;2022-10-16T01:55:54;33.30;;;20.92;;
42912;SDS011;50720;54.324;18.558;2022-10-16T01:58:28;30.88;;;19.95;;
42912;SDS011;50720;54.324;18.558;2022-10-16T02:01:01;32.97;;;21.08;;
42912;SDS011;50720;54.324;18.558;2022-10-16T02:03:33;36.38;;;21.15;;
42912;SDS011;50720;54.324;18.558;2022-10-16T02:06:04;32.03;;;20.05;;
42912;SDS011;50720;54.324;18.558;2022-10-16T02:11:05;36.53;;;21.30;;
42912;SDS011;50720;54.324;18.558;2022-10-16T02:13:39;30.08;;;19.55;;
42912;SDS011;50720;54.324;18.558;2022-10-16T02:16:12;29.88;;;20.13;;
42912;SDS011;50720;54.324;18.558;2022-10-16T02:18:42;27.92;;;19.42;;
42912;SDS011;50720;54.324;18.558;2022-10-16T02:21:13;31.60;;;20.27;;
42912;SDS011;50720;54.324;18.558;2022-10-16T02:23:50;29.17;;;19.15;;
42912;SDS011;50720;54.324;18.558;2022-10-16T02:26:27;33.67;;;20.42;;
42912;SDS011;50720;54.324;18.558;2022-10-16T02:29:02;29.58;;;19.63;;
42912;SDS011;50720;54.324;18.558;2022-10-16T02:31:38;31.20;;;20.60;;
42912;SDS011;50720;54.324;18.558;2022-10-16T02:34:13;32.42;;;20.35;;
42912;SDS011;50720;54.324;18.558;2022-10-16T02:36:44;29.42;;;19.25;;
42912;SDS011;50720;54.324;18.558;2022-10-16T02:39:17;28.70;;;19.88;;
42912;SDS011;50720;54.324;18.558;2022-10-16T02:41:48;26.30;;;19.50;;
42912;SDS011;50720;54.324;18.558;2022-10-16T02:44:19;29.80;;;19.80;;
42912;SDS011;50720;54.324;18.558;2022-10-16T02:49:17;27.30;;;19.80;;
42912;SDS011;50720;54.324;18.558;2022-10-16T02:51:47;26.55;;;19.23;;
42912;SDS011;50720;54.324;18.558;2022-10-16T02:54:17;31.93;;;20.43;;
42912;SDS011;50720;54.324;18.558;2022-10-16T02:56:46;29.77;;;20.27;;
42912;SDS011;50720;54.324;18.558;2022-10-16T02:59:16;32.25;;;21.02;;
42912;SDS011;50720;54.324;18.558;2022-10-16T03:01:47;27.48;;;20.58;;
42912;SDS011;50720;54.324;18.558;2022-10-16T03:04:16;32.53;;;20.92;;
42912;SDS011;50720;54.324;18.558;2022-10-16T03:06:46;30.83;;;21.50;;
42912;SDS011;50720;54.324;18.558;2022-10-16T03:09:16;35.53;;;22.48;;
42912;SDS011;50720;54.324;18.558;2022-10-16T03:11:45;36.67;;;22.70;;
42912;SDS011;50720;54.324;18.558;2022-10-16T03:14:15;34.45;;;22.25;;
42912;SDS011;50720;54.324;18.558;2022-10-16T03:16:46;36.65;;;24.35;;
42912;SDS011;50720;54.324;18.558;2022-10-16T03:19:16;30.63;;;22.10;;
42912;SDS011;50720;54.324;18.558;2022-10-16T03:21:46;34.20;;;23.00;;
42912;SDS011;50720;54.324;18.558;2022-10-16T03:24:16;37.10;;;23.00;;
42912;SDS011;50720;54.324;18.558;2022-10-16T03:26:46;34.97;;;21.30;;
42912;SDS011;50720;54.324;18.558;2022-10-16T03:29:16;34.35;;;23.50;;
42912;SDS011;50720;54.324;18.558;2022-10-16T03:31:46;32.22;;;22.25;;
42912;SDS011;50720;54.324;18.558;2022-10-16T03:34:17;37.47;;;23.73;;
42912;SDS011;50720;54.324;18.558;2022-10-16T03:36:46;35.03;;;23.38;;
42912;SDS011;50720;54.324;18.558;2022-10-16T03:39:16;36.33;;;24.35;;
42912;SDS011;50720;54.324;18.558;2022-10-16T03:41:45;35.35;;;22.52;;
42912;SDS011;50720;54.324;18.558;2022-10-16T03:44:15;36.23;;;23.30;;
42912;SDS011;50720;54.324;18.558;2022-10-16T03:46:46;31.65;;;20.15;;
42912;SDS011;50720;54.324;18.558;2022-10-16T03:49:16;33.70;;;23.80;;
42912;SDS011;50720;54.324;18.558;2022-10-16T03:51:45;31.90;;;22.05;;
42912;SDS011;50720;54.324;18.558;2022-10-16T03:54:15;35.73;;;23.10;;
42912;SDS011;50720;54.324;18.558;2022-10-16T03:56:45;35.28;;;23.30;;
42912;SDS011;50720;54.324;18.558;2022-10-16T03:59:15;39.83;;;23.20;;
42912;SDS011;50720;54.324;18.558;2022-10-16T04:01:44;37.95;;;23.02;;
42912;SDS011;50720;54.324;18.558;2022-10-16T04:04:15;38.45;;;24.10;;
42912;SDS011;50720;54.324;18.558;2022-10-16T04:06:45;34.80;;;23.30;;
42912;SDS011;50720;54.324;18.558;2022-10-16T04:09:15;39.28;;;25.95;;
42912;SDS011;50720;54.324;18.558;2022-10-16T04:11:44;39.13;;;24.63;;
42912;SDS011;50720;54.324;18.558;2022-10-16T04:14:14;35.38;;;23.80;;
42912;SDS011;50720;54.324;18.558;2022-10-16T04:16:43;36.35;;;22.77;;
42912;SDS011;50720;54.324;18.558;2022-10-16T04:19:15;34.70;;;22.30;;
42912;SDS011;50720;54.324;18.558;2022-10-16T04:24:13;39.78;;;24.52;;
42912;SDS011;50720;54.324;18.558;2022-10-16T04:26:43;36.88;;;22.83;;
42912;SDS011;50720;54.324;18.558;2022-10-16T04:29:12;38.88;;;23.83;;
42912;SDS011;50720;54.324;18.558;2022-10-16T04:31:42;34.53;;;22.92;;
42912;SDS011;50720;54.324;18.558;2022-10-16T04:34:12;35.83;;;23.75;;
42912;SDS011;50720;54.324;18.558;2022-10-16T04:36:43;40.67;;;25.05;;
42912;SDS011;50720;54.324;18.558;2022-10-16T04:39:12;41.05;;;23.90;;
42912;SDS011;50720;54.324;18.558;2022-10-16T04:41:42;40.10;;;24.15;;
42912;SDS011;50720;54.324;18.558;2022-10-16T04:44:12;42.40;;;24.10;;
42912;SDS011;50720;54.324;18.558;2022-10-16T04:46:41;38.30;;;23.65;;
42912;SDS011;50720;54.324;18.558;2022-10-16T04:49:12;35.90;;;24.13;;
42912;SDS011;50720;54.324;18.558;2022-10-16T04:51:42;39.45;;;26.80;;
42912;SDS011;50720;54.324;18.558;2022-10-16T04:54:12;44.78;;;26.42;;
42912;SDS011;50720;54.324;18.558;2022-10-16T04:56:42;42.97;;;26.95;;
42912;SDS011;50720;54.324;18.558;2022-10-16T04:59:15;42.15;;;25.70;;
42912;SDS011;50720;54.324;18.558;2022-10-16T05:01:44;46.85;;;25.05;;
42912;SDS011;50720;54.324;18.558;2022-10-16T05:04:14;44.78;;;26.80;;
42912;SDS011;50720;54.324;18.558;2022-10-16T05:06:45;43.25;;;25.50;;
42912;SDS011;50720;54.324;18.558;2022-10-16T05:09:16;43.95;;;26.95;;
42912;SDS011;50720;54.324;18.558;2022-10-16T05:11:46;42.15;;;27.35;;
42912;SDS011;50720;54.324;18.558;2022-10-16T05:14:15;43.47;;;27.17;;
42912;SDS011;50720;54.324;18.558;2022-10-16T05:16:45;45.20;;;28.35;;
42912;SDS011;50720;54.324;18.558;2022-10-16T05:19:16;39.22;;;26.88;;
42912;SDS011;50720;54.324;18.558;2022-10-16T05:21:55;42.00;;;26.25;;
42912;SDS011;50720;54.324;18.558;2022-10-16T05:24:25;46.63;;;28.77;;
42912;SDS011;50720;54.324;18.558;2022-10-16T05:26:54;42.33;;;26.92;;
42912;SDS011;50720;54.324;18.558;2022-10-16T05:29:25;43.30;;;25.90;;
42912;SDS011;50720;54.324;18.558;2022-10-16T05:31:54;44.33;;;29.17;;
42912;SDS011;50720;54.324;18.558;2022-10-16T05:34:24;44.03;;;29.77;;
42912;SDS011;50720;54.324;18.558;2022-10-16T05:36:54;44.88;;;27.58;;
42912;SDS011;50720;54.324;18.558;2022-10-16T05:39:25;42.10;;;26.42;;
42912;SDS011;50720;54.324;18.558;2022-10-16T05:41:54;44.83;;;28.40;;
42912;SDS011;50720;54.324;18.558;2022-10-16T05:44:24;46.08;;;28.70;;
42912;SDS011;50720;54.324;18.558;2022-10-16T05:46:53;41.55;;;28.13;;
42912;SDS011;50720;54.324;18.558;2022-10-16T05:49:23;42.22;;;27.98;;
42912;SDS011;50720;54.324;18.558;2022-10-16T05:51:52;43.00;;;27.77;;
42912;SDS011;50720;54.324;18.558;2022-10-16T05:54:24;41.20;;;27.60;;
42912;SDS011;50720;54.324;18.558;2022-10-16T05:56:53;39.88;;;26.92;;
42912;SDS011;50720;54.324;18.558;2022-10-16T05:59:23;39.47;;;28.23;;
42912;SDS011;50720;54.324;18.558;2022-10-16T06:01:52;48.15;;;27.38;;
42912;SDS011;50720;54.324;18.558;2022-10-16T06:04:22;40.67;;;29.00;;
42912;SDS011;50720;54.324;18.558;2022-10-16T06:06:51;43.97;;;27.92;;
42912;SDS011;50720;54.324;18.558;2022-10-16T06:09:23;42.08;;;28.70;;
42912;SDS011;50720;54.324;18.558;2022-10-16T06:14:21;40.35;;;27.33;;
42912;SDS011;50720;54.324;18.558;2022-10-16T06:16:51;41.45;;;29.67;;
42912;SDS011;50720;54.324;18.558;2022-10-16T06:19:21;41.37;;;28.33;;
42912;SDS011;50720;54.324;18.558;2022-10-16T06:21:50;40.95;;;27.95;;
42912;SDS011;50720;54.324;18.558;2022-10-16T06:24:20;40.15;;;29.17;;
42912;SDS011;50720;54.324;18.558;2022-10-16T06:26:51;39.60;;;27.48;;
42912;SDS011;50720;54.324;18.558;2022-10-16T06:29:20;45.70;;;29.55;;
42912;SDS011;50720;54.324;18.558;2022-10-16T06:31:50;41.83;;;28.70;;
42912;SDS011;50720;54.324;18.558;2022-10-16T06:34:20;50.03;;;29.42;;
42912;SDS011;50720;54.324;18.558;2022-10-16T06:36:49;45.95;;;29.77;;
42912;SDS011;50720;54.324;18.558;2022-10-16T06:39:19;46.50;;;30.07;;
42912;SDS011;50720;54.324;18.558;2022-10-16T06:41:50;40.40;;;27.92;;
42912;SDS011;50720;54.324;18.558;2022-10-16T06:44:20;38.97;;;28.73;;
42912;SDS011;50720;54.324;18.558;2022-10-16T06:46:49;41.35;;;27.83;;
42912;SDS011;50720;54.324;18.558;2022-10-16T06:49:19;47.88;;;29.25;;
42912;SDS011;50720;54.324;18.558;2022-10-16T06:51:50;47.85;;;30.67;;
42912;SDS011;50720;54.324;18.558;2022-10-16T06:54:19;48.87;;;30.20;;
42912;SDS011;50720;54.324;18.558;2022-10-16T06:56:50;48.50;;;31.13;;
42912;SDS011;50720;54.324;18.558;2022-10-16T06:59:22;48.50;;;31.35;;
42912;SDS011;50720;54.324;18.558;2022-10-16T07:01:51;49.10;;;32.55;;
42912;SDS011;50720;54.324;18.558;2022-10-16T07:04:21;50.20;;;32.63;;
42912;SDS011;50720;54.324;18.558;2022-10-16T07:06:50;51.35;;;31.00;;
42912;SDS011;50720;54.324;18.558;2022-10-16T07:09:20;52.10;;;33.57;;
42912;SDS011;50720;54.324;18.558;2022-10-16T07:11:51;49.85;;;32.45;;
42912;SDS011;50720;54.324;18.558;2022-10-16T07:14:21;48.95;;;31.88;;
42912;SDS011;50720;54.324;18.558;2022-10-16T07:16:51;48.97;;;30.85;;
42912;SDS011;50720;54.324;18.558;2022-10-16T07:19:20;46.43;;;30.07;;
42912;SDS011;50720;54.324;18.558;2022-10-16T07:21:50;48.30;;;31.63;;
42912;SDS011;50720;54.324;18.558;2022-10-16T07:24:20;45.43;;;30.73;;
42912;SDS011;50720;54.324;18.558;2022-10-16T07:26:51;51.13;;;32.83;;
42912;SDS011;50720;54.324;18.558;2022-10-16T07:29:21;51.45;;;33.15;;
42912;SDS011;50720;54.324;18.558;2022-10-16T07:31:50;44.95;;;31.00;;
42912;SDS011;50720;54.324;18.558;2022-10-16T07:34:20;59.60;;;34.53;;
42912;SDS011;50720;54.324;18.558;2022-10-16T07:36:50;56.20;;;33.92;;
42912;SDS011;50720;54.324;18.558;2022-10-16T07:39:20;55.17;;;34.05;;
42912;SDS011;50720;54.324;18.558;2022-10-16T07:41:51;52.97;;;33.47;;
42912;SDS011;50720;54.324;18.558;2022-10-16T07:44:21;51.13;;;32.17;;
42912;SDS011;50720;54.324;18.558;2022-10-16T07:46:50;50.65;;;33.75;;
42912;SDS011;50720;54.324;18.558;2022-10-16T07:49:20;53.53;;;33.70;;
42912;SDS011;50720;54.324;18.558;2022-10-16T07:51:49;49.78;;;31.75;;
42912;SDS011;50720;54.324;18.558;2022-10-16T07:54:20;56.05;;;34.72;;
42912;SDS011;50720;54.324;18.558;2022-10-16T07:56:50;49.47;;;33.17;;
42912;SDS011;50720;54.324;18.558;2022-10-16T07:59:20;49.88;;;32.10;;
42912;SDS011;50720;54.324;18.558;2022-10-16T08:01:49;51.67;;;32.30;;
42912;SDS011;50720;54.324;18.558;2022-10-16T08:04:19;46.97;;;31.53;;
42912;SDS011;50720;54.324;18.558;2022-10-16T08:06:49;45.88;;;30.33;;
42912;SDS011;50720;54.324;18.558;2022-10-16T08:09:19;48.37;;;29.83;;
42912;SDS011;50720;54.324;18.558;2022-10-16T08:11:48;46.22;;;30.33;;
42912;SDS011;50720;54.324;18.558;2022-10-16T08:14:21;44.55;;;30.52;;
42912;SDS011;50720;54.324;18.558;2022-10-16T08:16:50;44.22;;;30.58;;
42912;SDS011;50720;54.324;18.558;2022-10-16T08:19:21;44.53;;;30.23;;
42912;SDS011;50720;54.324;18.558;2022-10-16T08:21:50;41.60;;;29.30;;
42912;SDS011;50720;54.324;18.558;2022-10-16T08:24:20;42.40;;;28.33;;
42912;SDS011;50720;54.324;18.558;2022-10-16T08:26:49;38.78;;;27.83;;
42912;SDS011;50720;54.324;18.558;2022-10-16T08:29:23;43.17;;;28.00;;
42912;SDS011;50720;54.324;18.558;2022-10-16T08:34:22;40.72;;;26.27;;
42912;SDS011;50720;54.324;18.558;2022-10-16T08:36:52;40.28;;;26.80;;
42912;SDS011;50720;54.324;18.558;2022-10-16T08:39:22;44.08;;;26.92;;
42912;SDS011;50720;54.324;18.558;2022-10-16T08:41:59;39.65;;;26.45;;
42912;SDS011;50720;54.324;18.558;2022-10-16T08:44:48;43.45;;;27.75;;
42912;SDS011;50720;54.324;18.558;2022-10-16T08:47:34;35.58;;;24.38;;
42912;SDS011;50720;54.324;18.558;2022-10-16T08:50:13;49.20;;;27.27;;
42912;SDS011;50720;54.324;18.558;2022-10-16T08:52:47;42.28;;;26.92;;
42912;SDS011;50720;54.324;18.558;2022-10-16T08:55:23;39.85;;;26.20;;
42912;SDS011;50720;54.324;18.558;2022-10-16T08:58:02;35.50;;;24.52;;
42912;SDS011;50720;54.324;18.558;2022-10-16T09:00:44;35.45;;;23.83;;
42912;SDS011;50720;54.324;18.558;2022-10-16T09:03:30;35.15;;;24.40;;
42912;SDS011;50720;54.324;18.558;2022-10-16T09:06:22;37.90;;;24.08;;
42912;SDS011;50720;54.324;18.558;2022-10-16T09:09:02;37.60;;;24.98;;
42912;SDS011;50720;54.324;18.558;2022-10-16T09:11:43;36.40;;;26.40;;
42912;SDS011;50720;54.324;18.558;2022-10-16T09:14:21;35.97;;;24.48;;
42912;SDS011;50720;54.324;18.558;2022-10-16T09:17:11;32.80;;;23.35;;
42912;SDS011;50720;54.324;18.558;2022-10-16T09:19:50;35.88;;;24.90;;
42912;SDS011;50720;54.324;18.558;2022-10-16T09:22:25;31.90;;;21.70;;
42912;SDS011;50720;54.324;18.558;2022-10-16T09:24:57;34.35;;;23.30;;
42912;SDS011;50720;54.324;18.558;2022-10-16T09:27:30;33.03;;;23.13;;
42912;SDS011;50720;54.324;18.558;2022-10-16T09:30:00;33.80;;;22.30;;
42912;SDS011;50720;54.324;18.558;2022-10-16T09:32:31;36.03;;;22.48;;
42912;SDS011;50720;54.324;18.558;2022-10-16T09:35:00;34.17;;;22.90;;
42912;SDS011;50720;54.324;18.558;2022-10-16T09:40:00;32.25;;;21.50;;
42912;SDS011;50720;54.324;18.558;2022-10-16T09:42:34;30.80;;;21.85;;
42912;SDS011;50720;54.324;18.558;2022-10-16T09:45:06;30.90;;;22.13;;
42912;SDS011;50720;54.324;18.558;2022-10-16T09:47:50;32.00;;;22.15;;
42912;SDS011;50720;54.324;18.558;2022-10-16T09:50:24;30.98;;;20.27;;
42912;SDS011;50720;54.324;18.558;2022-10-16T09:53:05;32.22;;;21.85;;
42912;SDS011;50720;54.324;18.558;2022-10-16T09:55:47;29.48;;;21.20;;
42912;SDS011;50720;54.324;18.558;2022-10-16T09:58:20;31.42;;;21.10;;
42912;SDS011;50720;54.324;18.558;2022-10-16T10:00:51;29.83;;;21.00;;
42912;SDS011;50720;54.324;18.558;2022-10-16T10:03:30;33.25;;;21.40;;
42912;SDS011;50720;54.324;18.558;2022-10-16T10:06:06;31.35;;;20.75;;
42912;SDS011;50720;54.324;18.558;2022-10-16T10:11:50;31.88;;;21.73;;
42912;SDS011;50720;54.324;18.558;2022-10-16T10:14:23;33.40;;;21.90;;
42912;SDS011;50720;54.324;18.558;2022-10-16T10:19:45;33.20;;;23.25;;
42912;SDS011;50720;54.324;18.558;2022-10-16T10:22:24;31.60;;;22.75;;
42912;SDS011;50720;54.324;18.558;2022-10-16T10:25:12;30.73;;;20.80;;
42912;SDS011;50720;54.324;18.558;2022-10-16T10:28:03;33.20;;;23.17;;
42912;SDS011;50720;54.324;18.558;2022-10-16T10:30:44;32.03;;;21.42;;
42912;SDS011;50720;54.324;18.558;2022-10-16T10:33:21;30.48;;;20.77;;
42912;SDS011;50720;54.324;18.558;2022-10-16T10:36:01;32.97;;;21.77;;
42912;SDS011;50720;54.324;18.558;2022-10-16T10:38:39;32.55;;;20.92;;
42912;SDS011;50720;54.324;18.558;2022-10-16T10:44:27;29.52;;;20.63;;
42912;SDS011;50720;54.324;18.558;2022-10-16T10:47:07;28.92;;;19.83;;
42912;SDS011;50720;54.324;18.558;2022-10-16T10:49:44;27.55;;;19.55;;
42912;SDS011;50720;54.324;18.558;2022-10-16T10:52:29;25.17;;;17.42;;
42912;SDS011;50720;54.324;18.558;2022-10-16T10:55:20;25.75;;;18.58;;
42912;SDS011;50720;54.324;18.558;2022-10-16T10:58:00;26.02;;;18.30;;
42912;SDS011;50720;54.324;18.558;2022-10-16T11:01:01;27.83;;;18.70;;
42912;SDS011;50720;54.324;18.558;2022-10-16T11:06:39;26.52;;;18.05;;
42912;SDS011;50720;54.324;18.558;2022-10-16T11:09:15;23.70;;;17.55;;
42912;SDS011;50720;54.324;18.558;2022-10-16T11:11:49;25.45;;;18.10;;
42912;SDS011;50720;54.324;18.558;2022-10-16T11:14:26;23.95;;;18.48;;
42912;SDS011;50720;54.324;18.558;2022-10-16T11:17:01;28.40;;;19.02;;
42912;SDS011;50720;54.324;18.558;2022-10-16T11:19:40;25.80;;;17.80;;
42912;SDS011;50720;54.324;18.558;2022-10-16T11:22:14;24.17;;;16.27;;
42912;SDS011;50720;54.324;18.558;2022-10-16T11:24:51;23.45;;;16.95;;
42912;SDS011;50720;54.324;18.558;2022-10-16T11:27:27;21.98;;;16.17;;
42912;SDS011;50720;54.324;18.558;2022-10-16T11:30:05;22.50;;;16.38;;
42912;SDS011;50720;54.324;18.558;2022-10-16T11:32:45;21.40;;;14.52;;
42912;SDS011;50720;54.324;18.558;2022-10-16T11:35:24;22.63;;;14.07;;
42912;SDS011;50720;54.324;18.558;2022-10-16T11:38:00;18.25;;;15.05;;
42912;SDS011;50720;54.324;18.558;2022-10-16T11:40:35;17.92;;;14.35;;
42912;SDS011;50720;54.324;18.558;2022-10-16T11:43:12;18.20;;;13.93;;
42912;SDS011;50720;54.324;18.558;2022-10-16T11:45:44;16.10;;;13.30;;
42912;SDS011;50720;54.324;18.558;2022-10-16T11:48:19;15.13;;;12.70;;
42912;SDS011;50720;54.324;18.558;2022-10-16T11:50:56;18.92;;;12.88;;
42912;SDS011;50720;54.324;18.558;2022-10-16T11:53:43;19.17;;;13.70;;
42912;SDS011;50720;54.324;18.558;2022-10-16T11:56:19;22.08;;;11.50;;
42912;SDS011;50720;54.324;18.558;2022-10-16T11:58:52;14.25;;;11.27;;
42912;SDS011;50720;54.324;18.558;2022-10-16T12:01:27;13.93;;;10.65;;
42912;SDS011;50720;54.324;18.558;2022-10-16T12:04:07;15.82;;;11.48;;
42912;SDS011;50720;54.324;18.558;2022-10-16T12:06:47;13.52;;;10.45;;
42912;SDS011;50720;54.324;18.558;2022-10-16T12:09:20;14.43;;;10.52;;
42912;SDS011;50720;54.324;18.558;2022-10-16T12:11:54;11.43;;;9.88;;
42912;SDS011;50720;54.324;18.558;2022-10-16T12:14:34;16.38;;;10.45;;
42912;SDS011;50720;54.324;18.558;2022-10-16T12:17:27;14.38;;;10.90;;
42912;SDS011;50720;54.324;18.558;2022-10-16T12:20:18;12.82;;;9.48;;
42912;SDS011;50720;54.324;18.558;2022-10-16T12:22:51;16.02;;;8.68;;
42912;SDS011;50720;54.324;18.558;2022-10-16T12:25:24;11.73;;;9.75;;
42912;SDS011;50720;54.324;18.558;2022-10-16T12:27:59;14.05;;;9.40;;
42912;SDS011;50720;54.324;18.558;2022-10-16T12:30:30;13.45;;;8.38;;
42912;SDS011;50720;54.324;18.558;2022-10-16T12:33:02;18.63;;;9.05;;
42912;SDS011;50720;54.324;18.558;2022-10-16T12:35:34;13.65;;;8.57;;
42912;SDS011;50720;54.324;18.558;2022-10-16T12:38:15;11.05;;;6.85;;
42912;SDS011;50720;54.324;18.558;2022-10-16T12:40:47;10.80;;;7.25;;
42912;SDS011;50720;54.324;18.558;2022-10-16T12:43:35;12.18;;;7.68;;
42912;SDS011;50720;54.324;18.558;2022-10-16T12:46:20;8.27;;;7.40;;
42912;SDS011;50720;54.324;18.558;2022-10-16T12:48:52;7.80;;;6.97;;
42912;SDS011;50720;54.324;18.558;2022-10-16T12:51:34;9.15;;;6.97;;
42912;SDS011;50720;54.324;18.558;2022-10-16T12:54:11;10.10;;;7.63;;
42912;SDS011;50720;54.324;18.558;2022-10-16T12:56:46;9.40;;;7.55;;
42912;SDS011;50720;54.324;18.558;2022-10-16T12:59:29;9.65;;;6.07;;
42912;SDS011;50720;54.324;18.558;2022-10-16T13:02:11;8.23;;;7.13;;
42912;SDS011;50720;54.324;18.558;2022-10-16T13:05:09;9.73;;;6.88;;
42912;SDS011;50720;54.324;18.558;2022-10-16T13:07:53;8.55;;;5.82;;
42912;SDS011;50720;54.324;18.558;2022-10-16T13:10:32;8.63;;;6.22;;
42912;SDS011;50720;54.324;18.558;2022-10-16T13:13:12;8.00;;;5.78;;
42912;SDS011;50720;54.324;18.558;2022-10-16T13:16:02;7.82;;;5.57;;
42912;SDS011;50720;54.324;18.558;2022-10-16T13:18:43;6.78;;;4.97;;
42912;SDS011;50720;54.324;18.558;2022-10-16T13:21:28;9.05;;;5.10;;
42912;SDS011;50720;54.324;18.558;2022-10-16T13:24:10;6.53;;;5.82;;
42912;SDS011;50720;54.324;18.558;2022-10-16T13:29:21;6.95;;;5.15;;
42912;SDS011;50720;54.324;18.558;2022-10-16T13:34:22;8.18;;;6.57;;
42912;SDS011;50720;54.324;18.558;2022-10-16T13:36:52;8.38;;;6.57;;
42912;SDS011;50720;54.324;18.558;2022-10-16T13:39:22;7.38;;;6.30;;
42912;SDS011;50720;54.324;18.558;2022-10-16T13:44:54;9.30;;;5.90;;
42912;SDS011;50720;54.324;18.558;2022-10-16T13:47:27;6.55;;;5.95;;
42912;SDS011;50720;54.324;18.558;2022-10-16T13:50:01;7.68;;;6.07;;
42912;SDS011;50720;54.324;18.558;2022-10-16T13:52:33;10.35;;;6.88;;
42912;SDS011;50720;54.324;18.558;2022-10-16T13:57:34;7.70;;;6.20;;
42912;SDS011;50720;54.324;18.558;2022-10-16T14:00:03;8.73;;;5.80;;
42912;SDS011;50720;54.324;18.558;2022-10-16T14:02:51;6.68;;;6.00;;
42912;SDS011;50720;54.324;18.558;2022-10-16T14:05:25;11.05;;;6.35;;
42912;SDS011;50720;54.324;18.558;2022-10-16T14:07:55;8.18;;;6.18;;
42912;SDS011;50720;54.324;18.558;2022-10-16T14:10:26;6.90;;;6.20;;
42912;SDS011;50720;54.324;18.558;2022-10-16T14:12:59;6.80;;;6.07;;
42912;SDS011;50720;54.324;18.558;2022-10-16T14:15:31;8.85;;;6.03;;
42912;SDS011;50720;54.324;18.558;2022-10-16T14:18:05;7.47;;;6.40;;
42912;SDS011;50720;54.324;18.558;2022-10-16T14:20:34;7.20;;;6.45;;
42912;SDS011;50720;54.324;18.558;2022-10-16T14:23:04;6.53;;;5.72;;
42912;SDS011;50720;54.324;18.558;2022-10-16T14:25:48;8.57;;;6.50;;
42912;SDS011;50720;54.324;18.558;2022-10-16T14:28:19;8.00;;;7.05;;
42912;SDS011;50720;54.324;18.558;2022-10-16T14:30:50;8.90;;;6.93;;
42912;SDS011;50720;54.324;18.558;2022-10-16T14:33:24;7.88;;;6.72;;
42912;SDS011;50720;54.324;18.558;2022-10-16T14:36:01;6.82;;;6.07;;
42912;SDS011;50720;54.324;18.558;2022-10-16T14:38:34;7.45;;;6.65;;
42912;SDS011;50720;54.324;18.558;2022-10-16T14:41:04;8.98;;;7.43;;
42912;SDS011;50720;54.324;18.558;2022-10-16T14:43:34;7.85;;;6.95;;
42912;SDS011;50720;54.324;18.558;2022-10-16T14:46:06;7.35;;;6.53;;
42912;SDS011;50720;54.324;18.558;2022-10-16T14:48:43;7.85;;;6.60;;
42912;SDS011;50720;54.324;18.558;2022-10-16T14:51:15;9.70;;;7.75;;
42912;SDS011;50720;54.324;18.558;2022-10-16T14:53:45;10.35;;;6.63;;
42912;SDS011;50720;54.324;18.558;2022-10-16T14:56:16;10.32;;;7.13;;
42912;SDS011;50720;54.324;18.558;2022-10-16T14:58:48;9.60;;;7.40;;
42912;SDS011;50720;54.324;18.558;2022-10-16T15:01:19;9.40;;;7.75;;
42912;SDS011;50720;54.324;18.558;2022-10-16T15:03:51;8.35;;;7.45;;
42912;SDS011;50720;54.324;18.558;2022-10-16T15:06:22;36.80;;;11.60;;
42912;SDS011;50720;54.324;18.558;2022-10-16T15:08:52;11.07;;;7.97;;
42912;SDS011;50720;54.324;18.558;2022-10-16T15:11:21;10.55;;;8.20;;
42912;SDS011;50720;54.324;18.558;2022-10-16T15:13:51;13.87;;;8.80;;
42912;SDS011;50720;54.324;18.558;2022-10-16T15:16:21;9.15;;;8.25;;
42912;SDS011;50720;54.324;18.558;2022-10-16T15:18:52;14.37;;;9.30;;
42912;SDS011;50720;54.324;18.558;2022-10-16T15:21:24;11.20;;;8.82;;
42912;SDS011;50720;54.324;18.558;2022-10-16T15:23:55;12.02;;;10.07;;
42912;SDS011;50720;54.324;18.558;2022-10-16T15:26:25;9.65;;;8.45;;